sensor_id;sensor_type;location;lat;lon;timestamp;temperature;humidity
18147;DHT22;9199;48.832;9.182;2023-12-20T00:02:14;7.20;99.90
18147;DHT22;9199;48.832;9.182;2023-12-20T00:04:41;7.30;99.90
18147;DHT22;9199;48.832;9.182;2023-12-20T00:07:07;7.30;99.90
18147;DHT22;9199;48.832;9.182;2023-12-20T00:09:34;7.30;99.90
18147;DHT22;9199;48.832;9.182;2023-12-20T00:12:01;7.30;99.90
18147;DHT22;9199;48.832;9.182;2023-12-20T00:14:28;7.30;99.90
18147;DHT22;9199;48.832;9.182;2023-12-20T00:16:56;7.30;99.90
18147;DHT22;9199;48.832;9.182;2023-12-20T00:19:22;7.20;99.90
18147;DHT22;9199;48.832;9.182;2023-12-20T00:21:49;7.20;99.90
18147;DHT22;9199;48.832;9.182;2023-12-20T00:24:16;7.20;99.90
18147;DHT22;9199;48.832;9.182;2023-12-20T00:26:43;7.20;99.90
18147;DHT22;9199;48.832;9.182;2023-12-20T00:29:09;7.20;99.90
18147;DHT22;9199;48.832;9.182;2023-12-20T00:31:36;7.20;99.90
18147;DHT22;9199;48.832;9.182;2023-12-20T00:34:04;7.20;99.90
18147;DHT22;9199;48.832;9.182;2023-12-20T00:36:31;7.20;99.90
18147;DHT22;9199;48.832;9.182;2023-12-20T00:38:58;7.10;99.90
18147;DHT22;9199;48.832;9.182;2023-12-20T00:41:24;7.10;99.90
18147;DHT22;9199;48.832;9.182;2023-12-20T00:43:51;7.00;99.90
18147;DHT22;9199;48.832;9.182;2023-12-20T00:46:18;7.00;99.90
18147;DHT22;9199;48.832;9.182;2023-12-20T00:48:45;6.90;99.90
18147;DHT22;9199;48.832;9.182;2023-12-20T00:51:13;6.80;99.90
18147;DHT22;9199;48.832;9.182;2023-12-20T00:53:40;6.80;99.90
18147;DHT22;9199;48.832;9.182;2023-12-20T00:56:06;6.70;99.90
18147;DHT22;9199;48.832;9.182;2023-12-20T00:58:33;6.70;99.90
18147;DHT22;9199;48.832;9.182;2023-12-20T01:01:00;6.60;99.90
18147;DHT22;9199;48.832;9.182;2023-12-20T01:03:27;6.60;99.90
18147;DHT22;9199;48.832;9.182;2023-12-20T01:05:53;6.50;99.90
18147;DHT22;9199;48.832;9.182;2023-12-20T01:08:22;6.40;99.90
18147;DHT22;9199;48.832;9.182;2023-12-20T01:10:49;6.40;99.90
18147;DHT22;9199;48.832;9.182;2023-12-20T01:13:15;6.30;99.90
18147;DHT22;9199;48.832;9.182;2023-12-20T01:15:42;6.20;99.90
18147;DHT22;9199;48.832;9.182;2023-12-20T01:18:09;6.20;99.90
18147;DHT22;9199;48.832;9.182;2023-12-20T01:20:35;6.20;99.90
18147;DHT22;9199;48.832;9.182;2023-12-20T01:23:02;6.20;99.90
18147;DHT22;9199;48.832;9.182;2023-12-20T01:25:30;6.20;99.90
18147;DHT22;9199;48.832;9.182;2023-12-20T01:27:57;6.10;99.90
18147;DHT22;9199;48.832;9.182;2023-12-20T01:30:24;6.10;99.90
18147;DHT22;9199;48.832;9.182;2023-12-20T01:32:50;6.10;99.90
18147;DHT22;9199;48.832;9.182;2023-12-20T01:35:17;6.10;99.90
18147;DHT22;9199;48.832;9.182;2023-12-20T01:37:44;6.10;99.90
18147;DHT22;9199;48.832;9.182;2023-12-20T01:40:11;6.10;99.90
18147;DHT22;9199;48.832;9.182;2023-12-20T01:42:39;6.20;99.90
18147;DHT22;9199;48.832;9.182;2023-12-20T01:45:06;6.10;99.90
18147;DHT22;9199;48.832;9.182;2023-12-20T01:47:33;6.20;99.90
18147;DHT22;9199;48.832;9.182;2023-12-20T01:49:59;6.10;99.90
18147;DHT22;9199;48.832;9.182;2023-12-20T01:52:29;6.10;99.90
18147;DHT22;9199;48.832;9.182;2023-12-20T01:54:57;6.10;99.90
18147;DHT22;9199;48.832;9.182;2023-12-20T01:57:28;6.10;99.90
18147;DHT22;9199;48.832;9.182;2023-12-20T01:59:56;6.00;99.90
18147;DHT22;9199;48.832;9.182;2023-12-20T02:02:23;6.00;99.90
18147;DHT22;9199;48.832;9.182;2023-12-20T02:04:50;6.00;99.90
18147;DHT22;9199;48.832;9.182;2023-12-20T02:07:18;6.00;99.90
18147;DHT22;9199;48.832;9.182;2023-12-20T02:09:46;6.10;99.90
18147;DHT22;9199;48.832;9.182;2023-12-20T02:12:13;6.00;99.90
18147;DHT22;9199;48.832;9.182;2023-12-20T02:14:40;6.00;99.90
18147;DHT22;9199;48.832;9.182;2023-12-20T02:17:08;6.00;99.90
18147;DHT22;9199;48.832;9.182;2023-12-20T02:19:34;6.00;99.90
18147;DHT22;9199;48.832;9.182;2023-12-20T02:22:09;6.00;99.90
18147;DHT22;9199;48.832;9.182;2023-12-20T02:24:36;6.00;99.90
18147;DHT22;9199;48.832;9.182;2023-12-20T02:27:05;6.00;99.90
18147;DHT22;9199;48.832;9.182;2023-12-20T02:29:32;6.00;99.90
18147;DHT22;9199;48.832;9.182;2023-12-20T02:31:59;5.90;99.90
18147;DHT22;9199;48.832;9.182;2023-12-20T02:34:26;5.90;99.90
18147;DHT22;9199;48.832;9.182;2023-12-20T02:36:53;5.90;99.90
18147;DHT22;9199;48.832;9.182;2023-12-20T02:39:21;5.90;99.90
18147;DHT22;9199;48.832;9.182;2023-12-20T02:41:49;5.80;99.90
18147;DHT22;9199;48.832;9.182;2023-12-20T02:44:15;5.80;99.90
18147;DHT22;9199;48.832;9.182;2023-12-20T02:46:42;5.80;99.90
18147;DHT22;9199;48.832;9.182;2023-12-20T02:49:09;5.80;99.90
18147;DHT22;9199;48.832;9.182;2023-12-20T02:51:36;5.80;99.90
18147;DHT22;9199;48.832;9.182;2023-12-20T02:54:04;5.80;99.90
18147;DHT22;9199;48.832;9.182;2023-12-20T02:56:32;5.80;99.90
18147;DHT22;9199;48.832;9.182;2023-12-20T02:58:59;5.90;99.90
18147;DHT22;9199;48.832;9.182;2023-12-20T03:01:26;5.90;99.90
18147;DHT22;9199;48.832;9.182;2023-12-20T03:03:53;6.00;99.90
18147;DHT22;9199;48.832;9.182;2023-12-20T03:06:19;6.00;99.90
18147;DHT22;9199;48.832;9.182;2023-12-20T03:08:46;6.10;99.90
18147;DHT22;9199;48.832;9.182;2023-12-20T03:11:13;6.20;99.90
18147;DHT22;9199;48.832;9.182;2023-12-20T03:13:41;6.20;99.90
18147;DHT22;9199;48.832;9.182;2023-12-20T03:16:08;6.30;99.90
18147;DHT22;9199;48.832;9.182;2023-12-20T03:18:35;6.30;99.90
18147;DHT22;9199;48.832;9.182;2023-12-20T03:21:02;6.40;99.90
18147;DHT22;9199;48.832;9.182;2023-12-20T03:23:29;6.40;99.90
18147;DHT22;9199;48.832;9.182;2023-12-20T03:25:57;6.40;99.90
18147;DHT22;9199;48.832;9.182;2023-12-20T03:28:24;6.40;99.90
18147;DHT22;9199;48.832;9.182;2023-12-20T03:30:52;6.40;99.90
18147;DHT22;9199;48.832;9.182;2023-12-20T03:33:19;6.40;99.90
18147;DHT22;9199;48.832;9.182;2023-12-20T03:35:46;6.40;99.90
18147;DHT22;9199;48.832;9.182;2023-12-20T03:38:12;6.30;99.90
18147;DHT22;9199;48.832;9.182;2023-12-20T03:40:39;6.30;99.90
18147;DHT22;9199;48.832;9.182;2023-12-20T03:43:05;6.30;99.90
18147;DHT22;9199;48.832;9.182;2023-12-20T03:45:33;6.20;99.90
18147;DHT22;9199;48.832;9.182;2023-12-20T03:48:02;6.20;99.90
18147;DHT22;9199;48.832;9.182;2023-12-20T03:50:29;6.20;99.90
18147;DHT22;9199;48.832;9.182;2023-12-20T03:52:55;6.20;99.90
18147;DHT22;9199;48.832;9.182;2023-12-20T03:55:22;6.20;99.90
18147;DHT22;9199;48.832;9.182;2023-12-20T03:57:49;6.20;99.90
18147;DHT22;9199;48.832;9.182;2023-12-20T04:00:16;6.20;99.90
18147;DHT22;9199;48.832;9.182;2023-12-20T04:02:42;6.20;99.90
18147;DHT22;9199;48.832;9.182;2023-12-20T04:05:10;6.10;99.90
18147;DHT22;9199;48.832;9.182;2023-12-20T04:07:38;6.10;99.90
18147;DHT22;9199;48.832;9.182;2023-12-20T04:10:05;6.10;99.90
18147;DHT22;9199;48.832;9.182;2023-12-20T04:12:32;6.10;99.90
18147;DHT22;9199;48.832;9.182;2023-12-20T04:14:59;6.10;99.90
18147;DHT22;9199;48.832;9.182;2023-12-20T04:17:26;6.10;99.90
18147;DHT22;9199;48.832;9.182;2023-12-20T04:19:52;6.00;99.90
18147;DHT22;9199;48.832;9.182;2023-12-20T04:22:20;6.00;99.90
18147;DHT22;9199;48.832;9.182;2023-12-20T04:24:47;6.00;99.90
18147;DHT22;9199;48.832;9.182;2023-12-20T04:27:14;6.00;99.90
18147;DHT22;9199;48.832;9.182;2023-12-20T04:29:41;6.00;99.90
18147;DHT22;9199;48.832;9.182;2023-12-20T04:32:07;5.90;99.90
18147;DHT22;9199;48.832;9.182;2023-12-20T04:34:34;5.90;99.90
18147;DHT22;9199;48.832;9.182;2023-12-20T04:37:01;5.90;99.90
18147;DHT22;9199;48.832;9.182;2023-12-20T04:39:29;5.90;99.90
18147;DHT22;9199;48.832;9.182;2023-12-20T04:41:56;5.90;99.90
18147;DHT22;9199;48.832;9.182;2023-12-20T04:44:22;5.90;99.90
18147;DHT22;9199;48.832;9.182;2023-12-20T04:46:50;5.90;99.90
18147;DHT22;9199;48.832;9.182;2023-12-20T04:49:16;5.90;99.90
18147;DHT22;9199;48.832;9.182;2023-12-20T04:51:43;6.00;99.90
18147;DHT22;9199;48.832;9.182;2023-12-20T04:54:10;6.00;99.90
18147;DHT22;9199;48.832;9.182;2023-12-20T04:56:38;6.00;99.90
18147;DHT22;9199;48.832;9.182;2023-12-20T04:59:05;6.00;99.90
18147;DHT22;9199;48.832;9.182;2023-12-20T05:01:32;6.00;99.90
18147;DHT22;9199;48.832;9.182;2023-12-20T05:03:59;6.00;99.90
18147;DHT22;9199;48.832;9.182;2023-12-20T05:06:25;6.00;99.90
18147;DHT22;9199;48.832;9.182;2023-12-20T05:08:52;6.00;99.90
18147;DHT22;9199;48.832;9.182;2023-12-20T05:11:19;6.00;99.90
18147;DHT22;9199;48.832;9.182;2023-12-20T05:13:47;6.00;99.90
18147;DHT22;9199;48.832;9.182;2023-12-20T05:16:14;6.00;99.90
18147;DHT22;9199;48.832;9.182;2023-12-20T05:18:43;6.00;99.90
18147;DHT22;9199;48.832;9.182;2023-12-20T05:21:09;6.10;99.90
18147;DHT22;9199;48.832;9.182;2023-12-20T05:23:36;6.00;99.90
18147;DHT22;9199;48.832;9.182;2023-12-20T05:26:03;6.00;99.90
18147;DHT22;9199;48.832;9.182;2023-12-20T05:28:30;6.00;99.90
18147;DHT22;9199;48.832;9.182;2023-12-20T05:30:58;6.00;99.90
18147;DHT22;9199;48.832;9.182;2023-12-20T05:33:25;6.00;99.90
18147;DHT22;9199;48.832;9.182;2023-12-20T05:35:51;6.00;99.90
18147;DHT22;9199;48.832;9.182;2023-12-20T05:38:18;6.00;99.90
18147;DHT22;9199;48.832;9.182;2023-12-20T05:40:45;6.00;99.90
18147;DHT22;9199;48.832;9.182;2023-12-20T05:43:11;6.00;99.90
18147;DHT22;9199;48.832;9.182;2023-12-20T05:45:38;6.00;99.90
18147;DHT22;9199;48.832;9.182;2023-12-20T05:48:06;6.00;99.90
18147;DHT22;9199;48.832;9.182;2023-12-20T05:50:33;6.00;99.90
18147;DHT22;9199;48.832;9.182;2023-12-20T05:53:00;6.00;99.90
18147;DHT22;9199;48.832;9.182;2023-12-20T05:55:27;6.00;99.90
18147;DHT22;9199;48.832;9.182;2023-12-20T05:57:54;6.00;99.90
18147;DHT22;9199;48.832;9.182;2023-12-20T06:00:20;6.00;99.90
18147;DHT22;9199;48.832;9.182;2023-12-20T06:02:47;6.00;99.90
18147;DHT22;9199;48.832;9.182;2023-12-20T06:05:15;6.10;99.90
18147;DHT22;9199;48.832;9.182;2023-12-20T06:07:42;6.60;99.90
18147;DHT22;9199;48.832;9.182;2023-12-20T06:10:10;7.10;99.90
18147;DHT22;9199;48.832;9.182;2023-12-20T06:12:37;7.20;99.90
18147;DHT22;9199;48.832;9.182;2023-12-20T06:15:04;7.10;99.90
18147;DHT22;9199;48.832;9.182;2023-12-20T06:17:31;6.90;99.90
18147;DHT22;9199;48.832;9.182;2023-12-20T06:19:58;6.70;99.90
18147;DHT22;9199;48.832;9.182;2023-12-20T06:22:27;6.50;99.90
18147;DHT22;9199;48.832;9.182;2023-12-20T06:24:54;6.40;99.90
18147;DHT22;9199;48.832;9.182;2023-12-20T06:27:21;6.30;99.90
18147;DHT22;9199;48.832;9.182;2023-12-20T06:29:47;6.30;99.90
18147;DHT22;9199;48.832;9.182;2023-12-20T06:32:14;6.20;99.90
18147;DHT22;9199;48.832;9.182;2023-12-20T06:34:41;6.10;99.90
18147;DHT22;9199;48.832;9.182;2023-12-20T06:37:07;6.10;99.90
18147;DHT22;9199;48.832;9.182;2023-12-20T06:39:35;6.10;99.90
18147;DHT22;9199;48.832;9.182;2023-12-20T06:42:03;6.10;99.90
18147;DHT22;9199;48.832;9.182;2023-12-20T06:44:29;6.10;99.90
18147;DHT22;9199;48.832;9.182;2023-12-20T06:46:57;6.00;99.90
18147;DHT22;9199;48.832;9.182;2023-12-20T06:49:23;6.00;99.90
18147;DHT22;9199;48.832;9.182;2023-12-20T06:51:50;6.00;99.90
18147;DHT22;9199;48.832;9.182;2023-12-20T06:54:17;6.10;99.90
18147;DHT22;9199;48.832;9.182;2023-12-20T06:56:45;6.10;99.90
18147;DHT22;9199;48.832;9.182;2023-12-20T06:59:12;6.10;99.90
18147;DHT22;9199;48.832;9.182;2023-12-20T07:01:39;6.20;99.90
18147;DHT22;9199;48.832;9.182;2023-12-20T07:04:05;6.20;99.90
18147;DHT22;9199;48.832;9.182;2023-12-20T07:06:32;6.30;99.90
18147;DHT22;9199;48.832;9.182;2023-12-20T07:08:59;6.30;99.90
18147;DHT22;9199;48.832;9.182;2023-12-20T07:11:26;6.30;99.90
18147;DHT22;9199;48.832;9.182;2023-12-20T07:13:54;6.30;99.90
18147;DHT22;9199;48.832;9.182;2023-12-20T07:16:20;6.30;99.90
18147;DHT22;9199;48.832;9.182;2023-12-20T07:18:48;6.40;99.90
18147;DHT22;9199;48.832;9.182;2023-12-20T07:21:14;6.40;99.90
18147;DHT22;9199;48.832;9.182;2023-12-20T07:23:41;6.40;99.90
18147;DHT22;9199;48.832;9.182;2023-12-20T07:26:08;6.40;99.90
18147;DHT22;9199;48.832;9.182;2023-12-20T07:28:35;6.40;99.90
18147;DHT22;9199;48.832;9.182;2023-12-20T07:31:03;6.40;99.90
18147;DHT22;9199;48.832;9.182;2023-12-20T07:33:30;6.40;99.90
18147;DHT22;9199;48.832;9.182;2023-12-20T07:35:56;6.40;99.90
18147;DHT22;9199;48.832;9.182;2023-12-20T07:38:23;6.40;99.90
18147;DHT22;9199;48.832;9.182;2023-12-20T07:40:50;6.40;99.90
18147;DHT22;9199;48.832;9.182;2023-12-20T07:43:17;6.40;99.90
18147;DHT22;9199;48.832;9.182;2023-12-20T07:45:43;6.40;99.90
18147;DHT22;9199;48.832;9.182;2023-12-20T07:48:11;6.40;99.90
18147;DHT22;9199;48.832;9.182;2023-12-20T07:50:38;6.40;99.90
18147;DHT22;9199;48.832;9.182;2023-12-20T07:53:05;6.40;99.90
18147;DHT22;9199;48.832;9.182;2023-12-20T07:55:31;6.40;99.90
18147;DHT22;9199;48.832;9.182;2023-12-20T07:57:58;6.40;99.90
18147;DHT22;9199;48.832;9.182;2023-12-20T08:00:25;6.40;99.90
18147;DHT22;9199;48.832;9.182;2023-12-20T08:02:52;6.30;99.90
18147;DHT22;9199;48.832;9.182;2023-12-20T08:05:20;6.30;99.90
18147;DHT22;9199;48.832;9.182;2023-12-20T08:07:46;6.20;99.90
18147;DHT22;9199;48.832;9.182;2023-12-20T08:10:13;6.20;99.90
18147;DHT22;9199;48.832;9.182;2023-12-20T08:12:40;6.10;99.90
18147;DHT22;9199;48.832;9.182;2023-12-20T08:15:07;6.00;99.90
18147;DHT22;9199;48.832;9.182;2023-12-20T08:17:34;6.00;99.90
18147;DHT22;9199;48.832;9.182;2023-12-20T08:20:00;5.90;99.90
18147;DHT22;9199;48.832;9.182;2023-12-20T08:22:28;5.90;99.90
18147;DHT22;9199;48.832;9.182;2023-12-20T08:24:55;5.90;99.90
18147;DHT22;9199;48.832;9.182;2023-12-20T08:27:22;5.90;99.90
18147;DHT22;9199;48.832;9.182;2023-12-20T08:29:48;5.90;99.90
18147;DHT22;9199;48.832;9.182;2023-12-20T08:32:16;5.90;99.90
18147;DHT22;9199;48.832;9.182;2023-12-20T08:34:42;5.90;99.90
18147;DHT22;9199;48.832;9.182;2023-12-20T08:37:09;5.90;99.90
18147;DHT22;9199;48.832;9.182;2023-12-20T08:39:37;5.90;99.90
18147;DHT22;9199;48.832;9.182;2023-12-20T08:42:04;5.90;99.90
18147;DHT22;9199;48.832;9.182;2023-12-20T08:44:31;5.90;99.90
18147;DHT22;9199;48.832;9.182;2023-12-20T08:46:57;5.90;99.90
18147;DHT22;9199;48.832;9.182;2023-12-20T08:49:24;5.90;99.90
18147;DHT22;9199;48.832;9.182;2023-12-20T08:51:51;6.00;99.90
18147;DHT22;9199;48.832;9.182;2023-12-20T08:54:18;6.20;99.90
18147;DHT22;9199;48.832;9.182;2023-12-20T08:56:46;6.40;99.90
18147;DHT22;9199;48.832;9.182;2023-12-20T08:59:13;6.50;99.90
18147;DHT22;9199;48.832;9.182;2023-12-20T09:01:39;6.80;99.90
18147;DHT22;9199;48.832;9.182;2023-12-20T09:04:06;7.20;99.90
18147;DHT22;9199;48.832;9.182;2023-12-20T09:06:33;7.60;99.90
18147;DHT22;9199;48.832;9.182;2023-12-20T09:08:59;8.00;99.90
18147;DHT22;9199;48.832;9.182;2023-12-20T09:11:26;8.30;99.90
18147;DHT22;9199;48.832;9.182;2023-12-20T09:13:54;8.60;99.90
18147;DHT22;9199;48.832;9.182;2023-12-20T09:16:21;8.70;99.90
18147;DHT22;9199;48.832;9.182;2023-12-20T09:18:48;8.80;99.90
18147;DHT22;9199;48.832;9.182;2023-12-20T09:21:14;9.00;99.90
18147;DHT22;9199;48.832;9.182;2023-12-20T09:23:41;9.60;99.90
18147;DHT22;9199;48.832;9.182;2023-12-20T09:26:08;9.80;99.90
18147;DHT22;9199;48.832;9.182;2023-12-20T09:28:34;9.90;99.90
18147;DHT22;9199;48.832;9.182;2023-12-20T09:31:04;10.10;99.90
18147;DHT22;9199;48.832;9.182;2023-12-20T09:33:31;10.30;99.90
18147;DHT22;9199;48.832;9.182;2023-12-20T09:35:58;10.70;99.90
18147;DHT22;9199;48.832;9.182;2023-12-20T09:38:25;11.00;99.90
18147;DHT22;9199;48.832;9.182;2023-12-20T09:40:51;11.10;99.90
18147;DHT22;9199;48.832;9.182;2023-12-20T09:43:20;11.20;99.90
18147;DHT22;9199;48.832;9.182;2023-12-20T09:45:53;11.20;99.90
18147;DHT22;9199;48.832;9.182;2023-12-20T09:48:21;11.20;99.90
18147;DHT22;9199;48.832;9.182;2023-12-20T09:50:48;11.70;99.90
18147;DHT22;9199;48.832;9.182;2023-12-20T09:53:16;12.00;99.90
18147;DHT22;9199;48.832;9.182;2023-12-20T09:55:44;12.20;99.90
18147;DHT22;9199;48.832;9.182;2023-12-20T09:58:11;12.00;99.90
18147;DHT22;9199;48.832;9.182;2023-12-20T10:00:38;12.10;99.90
18147;DHT22;9199;48.832;9.182;2023-12-20T10:03:06;12.20;99.90
18147;DHT22;9199;48.832;9.182;2023-12-20T10:05:34;11.40;99.90
18147;DHT22;9199;48.832;9.182;2023-12-20T10:08:01;11.10;99.90
18147;DHT22;9199;48.832;9.182;2023-12-20T10:10:28;11.10;99.90
18147;DHT22;9199;48.832;9.182;2023-12-20T10:13:02;10.60;99.90
18147;DHT22;9199;48.832;9.182;2023-12-20T10:15:29;9.90;99.90
18147;DHT22;9199;48.832;9.182;2023-12-20T10:17:57;9.70;99.90
18147;DHT22;9199;48.832;9.182;2023-12-20T10:20:23;9.10;99.90
18147;DHT22;9199;48.832;9.182;2023-12-20T10:22:52;8.80;99.90
18147;DHT22;9199;48.832;9.182;2023-12-20T10:25:19;8.60;99.90
18147;DHT22;9199;48.832;9.182;2023-12-20T10:27:46;8.40;99.90
18147;DHT22;9199;48.832;9.182;2023-12-20T10:30:13;8.30;99.90
18147;DHT22;9199;48.832;9.182;2023-12-20T10:32:40;8.10;99.90
18147;DHT22;9199;48.832;9.182;2023-12-20T10:35:08;8.00;99.90
18147;DHT22;9199;48.832;9.182;2023-12-20T10:37:35;7.90;99.90
18147;DHT22;9199;48.832;9.182;2023-12-20T10:40:04;7.80;99.90
18147;DHT22;9199;48.832;9.182;2023-12-20T10:42:32;7.70;99.90
18147;DHT22;9199;48.832;9.182;2023-12-20T10:44:59;7.60;99.90
18147;DHT22;9199;48.832;9.182;2023-12-20T10:47:26;7.60;99.90
18147;DHT22;9199;48.832;9.182;2023-12-20T10:49:54;7.70;99.90
18147;DHT22;9199;48.832;9.182;2023-12-20T10:52:23;7.80;99.90
18147;DHT22;9199;48.832;9.182;2023-12-20T10:54:50;8.10;99.90
18147;DHT22;9199;48.832;9.182;2023-12-20T10:57:18;8.10;99.90
18147;DHT22;9199;48.832;9.182;2023-12-20T10:59:45;8.10;99.90
18147;DHT22;9199;48.832;9.182;2023-12-20T11:02:14;8.20;99.90
18147;DHT22;9199;48.832;9.182;2023-12-20T11:04:47;8.20;99.90
18147;DHT22;9199;48.832;9.182;2023-12-20T11:07:19;8.30;99.90
18147;DHT22;9199;48.832;9.182;2023-12-20T11:09:56;8.30;99.90
18147;DHT22;9199;48.832;9.182;2023-12-20T11:12:32;8.30;99.90
18147;DHT22;9199;48.832;9.182;2023-12-20T11:15:01;8.40;99.90
18147;DHT22;9199;48.832;9.182;2023-12-20T11:17:31;8.20;99.90
18147;DHT22;9199;48.832;9.182;2023-12-20T11:20:09;8.00;99.90
18147;DHT22;9199;48.832;9.182;2023-12-20T11:22:37;7.90;99.90
18147;DHT22;9199;48.832;9.182;2023-12-20T11:25:08;7.90;99.90
18147;DHT22;9199;48.832;9.182;2023-12-20T11:27:37;7.90;99.90
18147;DHT22;9199;48.832;9.182;2023-12-20T11:30:08;7.80;99.90
18147;DHT22;9199;48.832;9.182;2023-12-20T11:32:35;7.80;99.90
18147;DHT22;9199;48.832;9.182;2023-12-20T11:35:17;7.80;99.90
18147;DHT22;9199;48.832;9.182;2023-12-20T11:37:45;7.80;99.90
18147;DHT22;9199;48.832;9.182;2023-12-20T11:40:14;7.80;99.90
18147;DHT22;9199;48.832;9.182;2023-12-20T11:42:44;7.90;99.90
18147;DHT22;9199;48.832;9.182;2023-12-20T11:45:13;7.90;99.90
18147;DHT22;9199;48.832;9.182;2023-12-20T11:47:41;7.90;99.90
18147;DHT22;9199;48.832;9.182;2023-12-20T11:50:08;7.80;99.90
18147;DHT22;9199;48.832;9.182;2023-12-20T11:52:35;7.70;99.90
18147;DHT22;9199;48.832;9.182;2023-12-20T11:55:02;7.50;99.90
18147;DHT22;9199;48.832;9.182;2023-12-20T11:57:30;7.50;99.90
18147;DHT22;9199;48.832;9.182;2023-12-20T11:59:58;7.30;99.90
18147;DHT22;9199;48.832;9.182;2023-12-20T12:02:25;7.20;99.90
18147;DHT22;9199;48.832;9.182;2023-12-20T12:04:52;7.30;99.90
18147;DHT22;9199;48.832;9.182;2023-12-20T12:07:18;7.40;99.90
18147;DHT22;9199;48.832;9.182;2023-12-20T12:09:45;7.40;99.90
18147;DHT22;9199;48.832;9.182;2023-12-20T12:12:12;7.50;99.90
18147;DHT22;9199;48.832;9.182;2023-12-20T12:14:39;7.60;99.90
18147;DHT22;9199;48.832;9.182;2023-12-20T12:17:11;7.70;99.90
18147;DHT22;9199;48.832;9.182;2023-12-20T12:19:38;7.80;99.90
18147;DHT22;9199;48.832;9.182;2023-12-20T12:22:06;7.80;99.90
18147;DHT22;9199;48.832;9.182;2023-12-20T12:24:35;7.80;99.90
18147;DHT22;9199;48.832;9.182;2023-12-20T12:27:02;7.90;99.90
18147;DHT22;9199;48.832;9.182;2023-12-20T12:29:29;7.90;99.90
18147;DHT22;9199;48.832;9.182;2023-12-20T12:31:56;7.90;99.90
18147;DHT22;9199;48.832;9.182;2023-12-20T12:34:24;8.00;99.90
18147;DHT22;9199;48.832;9.182;2023-12-20T12:36:53;8.00;99.90
18147;DHT22;9199;48.832;9.182;2023-12-20T12:39:20;8.10;99.90
18147;DHT22;9199;48.832;9.182;2023-12-20T12:41:46;8.20;99.90
18147;DHT22;9199;48.832;9.182;2023-12-20T12:44:13;8.40;99.90
18147;DHT22;9199;48.832;9.182;2023-12-20T12:46:40;8.70;99.90
18147;DHT22;9199;48.832;9.182;2023-12-20T12:49:07;8.70;99.90
18147;DHT22;9199;48.832;9.182;2023-12-20T12:51:35;8.70;99.90
18147;DHT22;9199;48.832;9.182;2023-12-20T12:54:02;8.60;99.90
18147;DHT22;9199;48.832;9.182;2023-12-20T12:56:29;8.40;99.90
18147;DHT22;9199;48.832;9.182;2023-12-20T12:58:55;8.20;99.90
18147;DHT22;9199;48.832;9.182;2023-12-20T13:01:22;7.90;99.90
18147;DHT22;9199;48.832;9.182;2023-12-20T13:03:49;7.80;99.90
18147;DHT22;9199;48.832;9.182;2023-12-20T13:06:16;7.80;99.90
18147;DHT22;9199;48.832;9.182;2023-12-20T13:08:44;7.80;99.90
18147;DHT22;9199;48.832;9.182;2023-12-20T13:11:11;8.00;99.90
18147;DHT22;9199;48.832;9.182;2023-12-20T13:13:38;8.20;99.90
18147;DHT22;9199;48.832;9.182;2023-12-20T13:16:05;8.30;99.90
18147;DHT22;9199;48.832;9.182;2023-12-20T13:18:32;8.30;99.90
18147;DHT22;9199;48.832;9.182;2023-12-20T13:20:58;8.50;99.90
18147;DHT22;9199;48.832;9.182;2023-12-20T13:23:25;9.00;99.90
18147;DHT22;9199;48.832;9.182;2023-12-20T13:25:53;9.80;99.90
18147;DHT22;9199;48.832;9.182;2023-12-20T13:28:20;10.70;99.90
18147;DHT22;9199;48.832;9.182;2023-12-20T13:30:47;10.80;99.90
18147;DHT22;9199;48.832;9.182;2023-12-20T13:33:14;10.30;99.90
18147;DHT22;9199;48.832;9.182;2023-12-20T13:35:40;9.80;99.90
18147;DHT22;9199;48.832;9.182;2023-12-20T13:38:07;9.10;99.90
18147;DHT22;9199;48.832;9.182;2023-12-20T13:40:34;8.90;99.90
18147;DHT22;9199;48.832;9.182;2023-12-20T13:43:02;8.90;99.90
18147;DHT22;9199;48.832;9.182;2023-12-20T13:45:29;8.50;99.90
18147;DHT22;9199;48.832;9.182;2023-12-20T13:47:56;8.40;99.90
18147;DHT22;9199;48.832;9.182;2023-12-20T13:50:24;8.30;99.90
18147;DHT22;9199;48.832;9.182;2023-12-20T13:52:51;8.10;99.90
18147;DHT22;9199;48.832;9.182;2023-12-20T13:55:18;7.90;99.90
18147;DHT22;9199;48.832;9.182;2023-12-20T13:57:47;7.80;99.90
18147;DHT22;9199;48.832;9.182;2023-12-20T14:00:16;7.60;99.90
18147;DHT22;9199;48.832;9.182;2023-12-20T14:02:43;7.40;99.90
18147;DHT22;9199;48.832;9.182;2023-12-20T14:05:09;7.30;99.90
18147;DHT22;9199;48.832;9.182;2023-12-20T14:07:36;7.20;99.90
18147;DHT22;9199;48.832;9.182;2023-12-20T14:10:04;7.20;99.90
18147;DHT22;9199;48.832;9.182;2023-12-20T14:12:31;7.20;99.90
18147;DHT22;9199;48.832;9.182;2023-12-20T14:15:01;7.20;99.90
18147;DHT22;9199;48.832;9.182;2023-12-20T14:17:30;7.10;99.90
18147;DHT22;9199;48.832;9.182;2023-12-20T14:19:57;7.10;99.90
18147;DHT22;9199;48.832;9.182;2023-12-20T14:22:23;7.10;99.90
18147;DHT22;9199;48.832;9.182;2023-12-20T14:24:50;7.00;99.90
18147;DHT22;9199;48.832;9.182;2023-12-20T14:27:17;7.00;99.90
18147;DHT22;9199;48.832;9.182;2023-12-20T14:29:46;7.00;99.90
18147;DHT22;9199;48.832;9.182;2023-12-20T14:32:13;6.90;99.90
18147;DHT22;9199;48.832;9.182;2023-12-20T14:34:42;6.80;99.90
18147;DHT22;9199;48.832;9.182;2023-12-20T14:37:09;6.80;99.90
18147;DHT22;9199;48.832;9.182;2023-12-20T14:39:35;6.80;99.90
18147;DHT22;9199;48.832;9.182;2023-12-20T14:42:05;6.70;99.90
18147;DHT22;9199;48.832;9.182;2023-12-20T14:44:32;6.70;99.90
18147;DHT22;9199;48.832;9.182;2023-12-20T14:46:59;6.70;99.90
18147;DHT22;9199;48.832;9.182;2023-12-20T14:49:27;6.70;99.90
18147;DHT22;9199;48.832;9.182;2023-12-20T14:51:55;6.60;99.90
18147;DHT22;9199;48.832;9.182;2023-12-20T14:54:23;6.60;99.90
18147;DHT22;9199;48.832;9.182;2023-12-20T14:56:50;6.60;99.90
18147;DHT22;9199;48.832;9.182;2023-12-20T14:59:17;6.50;99.90
18147;DHT22;9199;48.832;9.182;2023-12-20T15:01:44;6.50;99.90
18147;DHT22;9199;48.832;9.182;2023-12-20T15:04:11;6.50;99.90
18147;DHT22;9199;48.832;9.182;2023-12-20T15:06:39;6.50;99.90
18147;DHT22;9199;48.832;9.182;2023-12-20T15:09:07;6.50;99.90
18147;DHT22;9199;48.832;9.182;2023-12-20T15:11:34;6.40;99.90
18147;DHT22;9199;48.832;9.182;2023-12-20T15:14:01;6.40;99.90
18147;DHT22;9199;48.832;9.182;2023-12-20T15:16:28;6.40;99.90
18147;DHT22;9199;48.832;9.182;2023-12-20T15:18:54;6.30;99.90
18147;DHT22;9199;48.832;9.182;2023-12-20T15:21:22;6.30;99.90
18147;DHT22;9199;48.832;9.182;2023-12-20T15:23:57;6.30;99.90
18147;DHT22;9199;48.832;9.182;2023-12-20T15:26:32;6.20;99.90
18147;DHT22;9199;48.832;9.182;2023-12-20T15:28:59;6.30;99.90
18147;DHT22;9199;48.832;9.182;2023-12-20T15:31:26;6.30;99.90
18147;DHT22;9199;48.832;9.182;2023-12-20T15:33:53;6.20;99.90
18147;DHT22;9199;48.832;9.182;2023-12-20T15:36:19;6.30;99.90
18147;DHT22;9199;48.832;9.182;2023-12-20T15:38:47;6.30;99.90
18147;DHT22;9199;48.832;9.182;2023-12-20T15:41:17;6.30;99.90
18147;DHT22;9199;48.832;9.182;2023-12-20T15:43:45;6.30;99.90
18147;DHT22;9199;48.832;9.182;2023-12-20T15:46:12;6.40;99.90
18147;DHT22;9199;48.832;9.182;2023-12-20T15:48:39;6.40;99.90
18147;DHT22;9199;48.832;9.182;2023-12-20T15:51:06;6.40;99.90
18147;DHT22;9199;48.832;9.182;2023-12-20T15:53:33;6.40;99.90
18147;DHT22;9199;48.832;9.182;2023-12-20T15:56:00;6.40;99.90
18147;DHT22;9199;48.832;9.182;2023-12-20T15:58:27;6.40;99.90
18147;DHT22;9199;48.832;9.182;2023-12-20T16:00:55;6.40;99.90